createdAt,value
2023-02-19T00:01:22.127Z,10.47
2023-02-19T00:03:55.056Z,9.20
2023-02-19T00:06:22.682Z,8.77
2023-02-19T00:08:49.840Z,8.90
2023-02-19T00:11:21.682Z,9.10
2023-02-19T00:13:50.080Z,11.73
2023-02-19T00:16:18.189Z,9.20
2023-02-19T00:18:45.625Z,8.90
2023-02-19T00:21:13.299Z,8.97
2023-02-19T00:23:40.423Z,9.00
2023-02-19T00:26:18.280Z,9.10
2023-02-19T00:28:46.228Z,8.77
2023-02-19T00:31:21.368Z,9.20
2023-02-19T00:33:49.173Z,9.10
2023-02-19T00:36:16.554Z,9.10
2023-02-19T00:38:44.082Z,9.07
2023-02-19T00:41:20.986Z,9.47
2023-02-19T00:43:48.025Z,9.03
2023-02-19T00:46:15.606Z,9.10
2023-02-19T00:48:42.648Z,9.47
2023-02-19T00:51:09.871Z,8.70
2023-02-19T00:53:37.261Z,9.00
2023-02-19T00:56:04.662Z,9.03
2023-02-19T00:58:31.784Z,9.17
2023-02-19T01:00:58.942Z,10.03
2023-02-19T01:03:26.209Z,8.87
2023-02-19T01:05:54.453Z,9.17
2023-02-19T01:08:22.595Z,9.17
2023-02-19T01:10:49.621Z,9.20
2023-02-19T01:13:16.765Z,9.23
2023-02-19T01:15:44.010Z,8.87
2023-02-19T01:18:11.588Z,8.90
2023-02-19T01:20:40.224Z,8.90
2023-02-19T01:23:07.387Z,8.77
2023-02-19T01:25:34.440Z,10.27
2023-02-19T01:28:01.469Z,9.20
2023-02-19T01:30:28.601Z,9.17
2023-02-19T01:32:55.637Z,10.10
2023-02-19T01:35:22.959Z,9.30
2023-02-19T01:37:49.979Z,9.23
2023-02-19T01:40:17.105Z,9.40
2023-02-19T01:42:44.839Z,9.70
2023-02-19T01:45:18.552Z,9.40
2023-02-19T01:47:46.228Z,9.57
2023-02-19T01:50:13.275Z,9.40
2023-02-19T01:52:40.321Z,10.60
2023-02-19T01:55:08.413Z,10.20
2023-02-19T01:57:38.290Z,9.53
2023-02-19T02:00:12.537Z,9.03
2023-02-19T02:02:40.792Z,9.37
2023-02-19T02:05:10.384Z,8.87
2023-02-19T02:07:56.036Z,9.00
2023-02-19T02:10:23.101Z,8.87
2023-02-19T02:12:51.121Z,8.73
2023-02-19T02:15:18.700Z,8.77
2023-02-19T02:18:02.606Z,8.70
2023-02-19T02:20:48.030Z,8.47
2023-02-19T02:23:15.134Z,9.37
2023-02-19T02:26:20.797Z,9.27
2023-02-19T02:28:50.425Z,8.97
2023-02-19T02:31:19.017Z,8.67
2023-02-19T02:33:48.922Z,10.00
2023-02-19T02:36:18.760Z,9.53
2023-02-19T02:38:46.640Z,9.90
2023-02-19T02:41:14.460Z,9.40
2023-02-19T02:43:41.596Z,8.97
2023-02-19T02:46:11.628Z,9.47
2023-02-19T02:48:39.006Z,9.30
2023-02-19T02:51:06.088Z,9.20
2023-02-19T02:53:55.214Z,9.50
2023-02-19T02:56:22.618Z,8.83
2023-02-19T02:58:50.152Z,8.93
2023-02-19T03:01:45.018Z,8.97
2023-02-19T03:04:18.507Z,9.03
2023-02-19T03:06:47.647Z,9.13
2023-02-19T03:09:18.308Z,9.17
2023-02-19T03:12:06.143Z,9.23
2023-02-19T03:14:58.336Z,9.07
2023-02-19T03:17:49.388Z,9.33
2023-02-19T03:20:16.716Z,9.70
2023-02-19T03:22:44.381Z,11.13
2023-02-19T03:25:33.030Z,9.43
2023-02-19T03:28:02.048Z,10.37
2023-02-19T03:30:31.177Z,12.47
2023-02-19T03:32:58.273Z,11.90
2023-02-19T03:35:27.473Z,9.70
2023-02-19T03:38:08.042Z,9.93
2023-02-19T03:40:43.307Z,12.60
2023-02-19T03:43:16.272Z,10.60
2023-02-19T03:46:06.607Z,10.50
2023-02-19T03:48:37.525Z,12.50
2023-02-19T03:51:18.745Z,14.73
2023-02-19T03:54:09.052Z,10.17
2023-02-19T03:56:39.562Z,10.20
2023-02-19T03:59:17.522Z,11.97
2023-02-19T04:01:47.332Z,11.67
2023-02-19T04:04:25.873Z,14.20
2023-02-19T04:06:57.312Z,12.70
2023-02-19T04:09:25.932Z,14.67
2023-02-19T04:11:53.451Z,16.90
2023-02-19T04:14:25.384Z,16.90
2023-02-19T04:16:55.660Z,17.50
2023-02-19T04:19:24.473Z,18.43
2023-02-19T04:21:52.756Z,17.23
2023-02-19T04:24:22.968Z,15.60
2023-02-19T04:26:50.160Z,16.47
2023-02-19T04:29:17.233Z,17.20
2023-02-19T04:31:44.366Z,16.50
2023-02-19T04:34:11.379Z,18.30
2023-02-19T04:36:38.509Z,20.20
2023-02-19T04:39:05.552Z,19.83
2023-02-19T04:41:32.689Z,23.00
2023-02-19T04:43:59.709Z,17.83
2023-02-19T04:46:26.932Z,20.63
2023-02-19T04:48:54.021Z,19.90
2023-02-19T04:51:21.128Z,22.53
2023-02-19T04:53:48.201Z,19.33
2023-02-19T04:56:16.762Z,25.27
2023-02-19T04:58:44.539Z,30.60
2023-02-19T05:01:12.183Z,28.10
2023-02-19T05:03:39.352Z,27.60
2023-02-19T05:06:08.183Z,27.37
2023-02-19T05:08:35.312Z,21.93
2023-02-19T05:11:03.238Z,20.63
2023-02-19T05:13:30.630Z,18.27
2023-02-19T05:15:58.805Z,24.60
2023-02-19T05:18:26.093Z,18.17
2023-02-19T05:20:53.562Z,17.97
2023-02-19T05:23:21.322Z,23.43
2023-02-19T05:25:48.381Z,22.43
2023-02-19T05:28:19.211Z,26.60
2023-02-19T05:30:47.290Z,24.70
2023-02-19T05:33:14.934Z,23.97
2023-02-19T05:35:43.167Z,25.63
2023-02-19T05:38:10.360Z,22.60
2023-02-19T05:40:37.503Z,31.23
2023-02-19T05:43:04.887Z,23.47
2023-02-19T05:45:32.057Z,27.73
2023-02-19T05:47:59.308Z,24.03
2023-02-19T05:50:26.436Z,28.67
2023-02-19T05:52:53.563Z,26.50
2023-02-19T05:55:20.647Z,22.50
2023-02-19T05:57:48.543Z,26.23
2023-02-19T06:00:17.238Z,23.67
2023-02-19T06:02:44.409Z,24.50
2023-02-19T06:05:11.597Z,25.07
2023-02-19T06:07:42.798Z,24.00
2023-02-19T06:10:10.801Z,35.67
2023-02-19T06:12:38.037Z,24.57
2023-02-19T06:15:06.422Z,32.07
2023-02-19T06:17:34.147Z,27.67
2023-02-19T06:20:01.356Z,25.70
2023-02-19T06:22:28.667Z,22.03
2023-02-19T06:24:55.696Z,26.70
2023-02-19T06:27:22.836Z,29.53
2023-02-19T06:29:49.881Z,25.10
2023-02-19T06:32:17.076Z,27.47
2023-02-19T06:34:44.195Z,28.53
2023-02-19T06:37:11.262Z,26.17
2023-02-19T06:39:38.294Z,28.83
2023-02-19T06:42:05.355Z,31.80
2023-02-19T06:44:32.441Z,30.33
2023-02-19T06:46:59.484Z,27.27
2023-02-19T06:49:26.760Z,28.57
2023-02-19T06:51:53.779Z,26.03
2023-02-19T06:54:20.848Z,30.07
2023-02-19T06:56:47.880Z,30.03
2023-02-19T06:59:16.940Z,29.63
2023-02-19T07:01:44.621Z,31.90
2023-02-19T07:04:11.994Z,26.77
2023-02-19T07:06:39.385Z,33.20
2023-02-19T07:09:07.023Z,27.23
2023-02-19T07:11:35.194Z,32.10
2023-02-19T07:14:03.455Z,29.37
2023-02-19T07:16:30.895Z,29.67
2023-02-19T07:18:58.806Z,30.67
2023-02-19T07:21:26.234Z,29.20
2023-02-19T07:23:53.729Z,26.20
2023-02-19T07:26:21.489Z,31.43
2023-02-19T07:28:49.359Z,31.23
2023-02-19T07:31:17.282Z,30.67
2023-02-19T07:33:44.741Z,31.70
2023-02-19T07:36:12.182Z,29.87
2023-02-19T07:38:39.257Z,29.57
2023-02-19T07:41:06.868Z,33.27
2023-02-19T07:43:35.149Z,26.80
2023-02-19T07:46:06.168Z,27.63
2023-02-19T07:48:34.058Z,28.37
2023-02-19T07:51:01.770Z,24.83
2023-02-19T07:53:29.633Z,24.90
2023-02-19T07:56:01.711Z,27.40
2023-02-19T07:58:29.048Z,29.80
2023-02-19T08:00:56.295Z,24.87
2023-02-19T08:03:23.385Z,31.60
2023-02-19T08:05:51.414Z,26.47
2023-02-19T08:08:18.458Z,21.63
2023-02-19T08:11:04.248Z,27.10
2023-02-19T08:13:31.915Z,31.90
2023-02-19T08:16:16.050Z,28.13
2023-02-19T08:18:44.580Z,27.03
2023-02-19T08:21:12.323Z,25.80
2023-02-19T08:23:40.729Z,21.60
2023-02-19T08:26:08.548Z,29.97
2023-02-19T08:28:35.928Z,28.23
2023-02-19T08:31:04.625Z,25.20
2023-02-19T08:33:31.788Z,25.23
2023-02-19T08:36:04.485Z,27.03
2023-02-19T08:38:31.876Z,24.37
2023-02-19T08:40:59.009Z,28.27
2023-02-19T08:43:26.086Z,21.13
2023-02-19T08:45:54.597Z,22.53
2023-02-19T08:48:22.227Z,21.20
2023-02-19T08:50:56.446Z,29.37
2023-02-19T08:53:24.496Z,29.70
2023-02-19T08:55:52.152Z,35.37
2023-02-19T08:58:19.327Z,32.47
2023-02-19T09:00:46.439Z,35.03
2023-02-19T09:03:13.473Z,30.90
2023-02-19T09:05:40.666Z,36.50
2023-02-19T09:08:07.767Z,35.80
2023-02-19T09:10:34.868Z,40.13
2023-02-19T09:13:02.613Z,31.10
2023-02-19T09:15:30.673Z,29.67
2023-02-19T09:17:57.684Z,25.33
2023-02-19T09:20:24.804Z,29.87
2023-02-19T09:22:56.784Z,24.27
2023-02-19T09:25:23.930Z,26.00
2023-02-19T09:27:50.934Z,30.37
2023-02-19T09:30:19.215Z,29.37
2023-02-19T09:32:46.249Z,30.90
2023-02-19T09:35:13.260Z,31.77
2023-02-19T09:37:40.317Z,33.47
2023-02-19T09:40:07.659Z,34.07
2023-02-19T09:42:34.773Z,36.97
2023-02-19T09:45:02.365Z,25.97
2023-02-19T09:47:34.267Z,27.90
2023-02-19T09:50:05.921Z,30.37
2023-02-19T09:52:36.386Z,27.70
2023-02-19T09:55:09.908Z,29.90
2023-02-19T09:57:37.009Z,36.20
2023-02-19T10:00:24.552Z,31.97
2023-02-19T10:02:52.590Z,24.50
2023-02-19T10:05:19.760Z,32.37
2023-02-19T10:07:50.341Z,24.70
2023-02-19T10:10:17.956Z,27.30
2023-02-19T10:12:50.503Z,25.17
2023-02-19T10:15:19.654Z,22.63
2023-02-19T10:17:46.699Z,26.57
2023-02-19T10:20:19.932Z,23.97
2023-02-19T10:22:47.262Z,25.33
2023-02-19T10:25:17.427Z,31.10
2023-02-19T10:27:44.679Z,20.63
2023-02-19T10:30:19.066Z,36.73
2023-02-19T10:33:05.013Z,21.07
2023-02-19T10:35:36.038Z,21.60
2023-02-19T10:38:04.053Z,31.13
2023-02-19T10:40:31.179Z,24.07
2023-02-19T10:42:59.515Z,26.63
2023-02-19T10:45:30.742Z,28.27
2023-02-19T10:47:58.255Z,25.50
2023-02-19T10:50:31.505Z,32.17
2023-02-19T10:52:59.731Z,22.23
2023-02-19T10:55:38.092Z,21.27
2023-02-19T10:58:23.797Z,25.20
2023-02-19T11:01:09.832Z,29.93
2023-02-19T11:03:36.990Z,28.33
2023-02-19T11:06:06.997Z,24.63
2023-02-19T11:08:39.520Z,25.70
2023-02-19T11:11:06.967Z,26.60
2023-02-19T11:13:37.961Z,33.30
2023-02-19T11:16:05.744Z,23.90
2023-02-19T11:18:34.892Z,31.30
2023-02-19T11:21:05.502Z,28.90
2023-02-19T11:23:44.505Z,33.20
2023-02-19T11:26:25.872Z,27.43
2023-02-19T11:29:11.982Z,26.97
2023-02-19T11:31:40.194Z,27.00
2023-02-19T11:34:21.037Z,26.50
2023-02-19T11:36:54.779Z,29.30
2023-02-19T11:39:28.864Z,21.63
2023-02-19T11:41:56.323Z,24.10
2023-02-19T11:44:46.685Z,23.87
2023-02-19T11:47:29.116Z,22.13
2023-02-19T11:50:03.146Z,25.83
2023-02-19T11:52:35.385Z,21.17
2023-02-19T11:55:19.259Z,18.70
2023-02-19T11:57:47.867Z,16.63
2023-02-19T12:00:25.656Z,26.47
2023-02-19T12:03:25.472Z,20.03
2023-02-19T12:06:09.088Z,28.57
2023-02-19T12:08:51.859Z,19.97
2023-02-19T12:11:53.461Z,25.37
2023-02-19T12:14:33.606Z,24.73
2023-02-19T12:17:01.821Z,31.63
2023-02-19T12:19:29.025Z,23.10
2023-02-19T12:22:14.924Z,21.70
2023-02-19T12:25:00.842Z,20.00
2023-02-19T12:27:31.046Z,19.63
2023-02-19T12:30:17.273Z,16.50
2023-02-19T12:32:50.856Z,17.70
2023-02-19T12:35:25.276Z,19.20
2023-02-19T12:38:04.543Z,20.37
2023-02-19T12:40:39.618Z,17.60
2023-02-19T12:43:18.145Z,19.80
2023-02-19T12:45:58.118Z,18.53
2023-02-19T12:48:34.507Z,17.33
2023-02-19T12:51:11.344Z,17.00
2023-02-19T12:53:40.701Z,21.00
2023-02-19T12:56:13.397Z,19.27
2023-02-19T12:58:43.592Z,15.90
2023-02-19T13:01:12.122Z,13.73
2023-02-19T13:03:41.614Z,12.27
2023-02-19T13:06:18.502Z,14.60
2023-02-19T13:09:06.336Z,14.97
2023-02-19T13:11:40.372Z,15.90
2023-02-19T13:14:18.507Z,12.73
2023-02-19T13:16:50.552Z,20.97
2023-02-19T13:19:17.586Z,12.40
2023-02-19T13:22:06.483Z,12.10
2023-02-19T13:24:35.987Z,16.70
2023-02-19T13:27:11.304Z,12.93
2023-02-19T13:29:44.575Z,12.30
2023-02-19T13:32:14.410Z,13.83
2023-02-19T13:35:00.474Z,11.80
2023-02-19T13:37:27.984Z,13.80
2023-02-19T13:39:56.087Z,14.93
2023-02-19T13:42:41.060Z,13.23
2023-02-19T13:45:08.178Z,13.10
2023-02-19T13:47:54.004Z,13.03
2023-02-19T13:50:25.675Z,14.13
2023-02-19T13:52:53.989Z,11.60
2023-02-19T13:55:42.313Z,19.03
2023-02-19T13:58:28.158Z,14.43
2023-02-19T14:00:55.259Z,12.23
2023-02-19T14:03:29.353Z,13.97
2023-02-19T14:06:00.437Z,13.10
2023-02-19T14:08:46.516Z,18.20
2023-02-19T14:11:14.283Z,11.87
2023-02-19T14:13:54.541Z,13.07
2023-02-19T14:16:31.855Z,13.33
2023-02-19T14:18:58.938Z,12.30
2023-02-19T14:21:27.863Z,12.90
2023-02-19T14:23:57.459Z,12.83
2023-02-19T14:26:25.419Z,13.90
2023-02-19T14:28:53.397Z,16.90
2023-02-19T14:31:27.846Z,14.57
2023-02-19T14:33:56.857Z,11.60
2023-02-19T14:36:47.799Z,14.63
2023-02-19T14:39:21.014Z,14.60
2023-02-19T14:41:50.277Z,18.20
2023-02-19T14:44:25.889Z,11.93
2023-02-19T14:46:53.095Z,12.60
2023-02-19T14:49:23.357Z,13.90
2023-02-19T14:51:56.200Z,14.17
2023-02-19T14:54:46.588Z,17.83
2023-02-19T14:57:25.372Z,16.67
2023-02-19T15:00:15.701Z,13.23
2023-02-19T15:02:43.575Z,14.43
2023-02-19T15:05:17.319Z,14.23
2023-02-19T15:07:44.566Z,14.83
2023-02-19T15:10:13.585Z,13.57
2023-02-19T15:12:46.807Z,13.57
2023-02-19T15:15:22.710Z,16.40
2023-02-19T15:17:50.585Z,22.57
2023-02-19T15:20:19.404Z,17.63
2023-02-19T15:22:47.552Z,13.13
2023-02-19T15:25:18.696Z,16.80
2023-02-19T15:27:45.850Z,15.70
2023-02-19T15:30:28.318Z,17.03
2023-02-19T15:33:00.128Z,21.17
2023-02-19T15:35:28.175Z,18.53
2023-02-19T15:37:55.663Z,16.80
2023-02-19T15:40:25.253Z,20.07
2023-02-19T15:42:52.317Z,16.83
2023-02-19T15:45:22.510Z,15.80
2023-02-19T15:48:05.156Z,16.30
2023-02-19T15:50:37.012Z,21.90
2023-02-19T15:53:24.055Z,15.73
2023-02-19T15:55:51.208Z,18.20
2023-02-19T15:58:30.620Z,13.80
2023-02-19T16:01:00.027Z,18.20
2023-02-19T16:03:28.214Z,15.23
2023-02-19T16:06:00.323Z,18.70
2023-02-19T16:08:32.080Z,14.40
2023-02-19T16:11:00.567Z,17.00
2023-02-19T16:13:30.539Z,16.93
2023-02-19T16:16:15.207Z,19.47
2023-02-19T16:18:49.708Z,16.23
2023-02-19T16:21:18.553Z,15.27
2023-02-19T16:23:48.041Z,13.70
2023-02-19T16:26:15.223Z,14.97
2023-02-19T16:28:42.726Z,15.77
2023-02-19T16:31:11.117Z,16.20
2023-02-19T16:33:38.361Z,14.77
2023-02-19T16:36:19.150Z,15.70
2023-02-19T16:39:01.574Z,19.43
2023-02-19T16:41:28.615Z,14.50
2023-02-19T16:43:55.806Z,17.90
2023-02-19T16:46:22.943Z,17.50
2023-02-19T16:48:50.543Z,15.63
2023-02-19T16:51:22.505Z,15.67
2023-02-19T16:53:49.594Z,16.50
2023-02-19T16:56:22.886Z,15.53
2023-02-19T16:58:52.756Z,16.00
2023-02-19T17:01:19.841Z,21.60
2023-02-19T17:03:47.654Z,17.13
2023-02-19T17:06:14.968Z,16.57
2023-02-19T17:08:42.703Z,16.27
2023-02-19T17:11:14.480Z,21.10
2023-02-19T17:13:42.452Z,17.97
2023-02-19T17:16:14.816Z,16.87
2023-02-19T17:18:42.129Z,18.43
2023-02-19T17:21:23.173Z,17.83
2023-02-19T17:23:50.451Z,21.23
2023-02-19T17:26:22.394Z,21.73
2023-02-19T17:28:49.705Z,17.03
2023-02-19T17:31:17.280Z,21.43
2023-02-19T17:33:44.886Z,21.83
2023-02-19T17:36:19.285Z,23.40
2023-02-19T17:38:47.445Z,20.40
2023-02-19T17:41:14.576Z,25.30
2023-02-19T17:43:41.633Z,23.57
2023-02-19T17:46:10.031Z,22.90
2023-02-19T17:48:37.064Z,20.10
2023-02-19T17:51:04.203Z,24.43
2023-02-19T17:53:32.289Z,21.70
2023-02-19T17:55:59.332Z,23.63
2023-02-19T17:58:26.398Z,25.70
2023-02-19T18:00:53.596Z,27.60
2023-02-19T18:03:22.687Z,21.33
2023-02-19T18:05:49.716Z,21.67
2023-02-19T18:08:16.787Z,24.47
2023-02-19T18:10:43.818Z,23.00
2023-02-19T18:13:10.995Z,23.20
2023-02-19T18:15:37.996Z,22.97
2023-02-19T18:18:07.870Z,23.00
2023-02-19T18:20:34.989Z,24.47
2023-02-19T18:23:02.071Z,25.63
2023-02-19T18:25:29.153Z,22.40
2023-02-19T18:27:56.319Z,20.97
2023-02-19T18:30:23.914Z,26.30
2023-02-19T18:32:51.083Z,26.00
2023-02-19T18:35:19.154Z,23.27
2023-02-19T18:37:46.441Z,22.17
2023-02-19T18:40:13.594Z,26.70
2023-02-19T18:42:40.896Z,26.87
2023-02-19T18:45:08.173Z,22.73
2023-02-19T18:47:35.184Z,22.43
2023-02-19T18:50:02.278Z,23.40
2023-02-19T18:52:29.350Z,27.63
2023-02-19T18:54:57.488Z,21.27
2023-02-19T18:57:26.126Z,20.97
2023-02-19T18:59:53.272Z,22.97
2023-02-19T19:02:20.585Z,21.90
2023-02-19T19:04:51.695Z,25.30
2023-02-19T19:07:19.020Z,23.13
2023-02-19T19:09:46.216Z,29.90
2023-02-19T19:12:13.327Z,24.87
2023-02-19T19:14:40.397Z,23.90
2023-02-19T19:17:07.561Z,30.53
2023-02-19T19:19:34.761Z,24.93
2023-02-19T19:22:01.970Z,26.30
2023-02-19T19:24:29.178Z,25.83
2023-02-19T19:26:56.183Z,22.73
2023-02-19T19:29:23.717Z,27.73
2023-02-19T19:31:52.049Z,29.77
2023-02-19T19:34:19.232Z,26.50
2023-02-19T19:36:46.551Z,31.60
2023-02-19T19:39:13.667Z,33.53
2023-02-19T19:41:41.097Z,29.73
2023-02-19T19:44:09.008Z,30.10
2023-02-19T19:46:44.200Z,31.60
2023-02-19T19:49:11.255Z,33.73
2023-02-19T19:51:38.442Z,25.33
2023-02-19T19:54:05.637Z,25.70
2023-02-19T19:56:32.660Z,28.00
2023-02-19T19:58:59.699Z,23.63
2023-02-19T20:01:26.967Z,28.57
2023-02-19T20:03:54.052Z,21.23
2023-02-19T20:06:26.116Z,23.83
2023-02-19T20:08:53.201Z,22.97
2023-02-19T20:11:20.239Z,22.13
2023-02-19T20:13:47.278Z,20.07
2023-02-19T20:16:15.449Z,18.93
2023-02-19T20:18:42.670Z,20.40
2023-02-19T20:21:10.813Z,18.03
2023-02-19T20:23:41.084Z,17.70
2023-02-19T20:26:08.293Z,23.77
2023-02-19T20:28:35.384Z,21.10
2023-02-19T20:31:02.490Z,19.23
2023-02-19T20:33:29.620Z,19.73
2023-02-19T20:35:56.946Z,17.50
2023-02-19T20:38:24.072Z,17.77
2023-02-19T20:40:51.160Z,19.10
2023-02-19T20:43:18.193Z,18.13
2023-02-19T20:45:46.536Z,18.87
2023-02-19T20:48:15.275Z,17.73
2023-02-19T20:50:42.356Z,18.20
2023-02-19T20:53:09.757Z,19.30
2023-02-19T20:55:36.974Z,18.43
2023-02-19T20:58:04.318Z,17.30
2023-02-19T21:00:31.556Z,21.20
2023-02-19T21:02:58.783Z,21.97
2023-02-19T21:05:26.155Z,18.40
2023-02-19T21:07:53.196Z,19.90
2023-02-19T21:10:20.344Z,19.50
2023-02-19T21:12:47.995Z,19.03
2023-02-19T21:15:15.089Z,18.73
2023-02-19T21:17:45.925Z,18.80
2023-02-19T21:20:13.206Z,19.07
2023-02-19T21:22:40.227Z,21.63
2023-02-19T21:25:07.608Z,20.17
2023-02-19T21:27:34.752Z,19.90
2023-02-19T21:30:02.907Z,23.67
2023-02-19T21:32:30.035Z,20.80
2023-02-19T21:34:57.185Z,18.27
2023-02-19T21:37:24.199Z,22.27
2023-02-19T21:39:51.437Z,20.47
2023-02-19T21:42:18.454Z,20.87
2023-02-19T21:44:45.541Z,20.20
2023-02-19T21:47:12.845Z,20.73
2023-02-19T21:49:41.774Z,22.53
2023-02-19T21:52:08.849Z,20.83
2023-02-19T21:54:35.884Z,22.30
2023-02-19T21:57:03.746Z,22.90
2023-02-19T21:59:30.761Z,20.50
2023-02-19T22:01:57.883Z,21.00
2023-02-19T22:04:25.018Z,19.33
2023-02-19T22:06:55.443Z,19.03
2023-02-19T22:09:22.474Z,19.60
2023-02-19T22:11:49.552Z,19.07
2023-02-19T22:14:16.585Z,20.10
2023-02-19T22:16:43.782Z,20.63
2023-02-19T22:19:11.937Z,19.50
2023-02-19T22:21:42.466Z,26.27
2023-02-19T22:24:14.494Z,20.80
2023-02-19T22:26:42.484Z,21.70
2023-02-19T22:29:10.966Z,22.93
2023-02-19T22:31:38.123Z,23.23
2023-02-19T22:34:05.682Z,25.90
2023-02-19T22:36:34.137Z,25.33
2023-02-19T22:39:01.527Z,22.70
2023-02-19T22:41:28.860Z,25.23
2023-02-19T22:43:56.428Z,23.10
2023-02-19T22:46:25.906Z,20.70
2023-02-19T22:48:52.973Z,22.77
2023-02-19T22:51:21.550Z,23.00
2023-02-19T22:53:49.657Z,25.13
2023-02-19T22:56:17.223Z,22.00
2023-02-19T22:58:44.703Z,18.77
2023-02-19T23:01:12.473Z,20.97
2023-02-19T23:04:05.859Z,19.93
2023-02-19T23:06:34.079Z,19.60
2023-02-19T23:09:11.199Z,20.87
2023-02-19T23:11:39.117Z,21.47
2023-02-19T23:14:06.815Z,20.43
2023-02-19T23:16:36.530Z,20.97
2023-02-19T23:19:11.214Z,22.93
2023-02-19T23:21:38.934Z,21.98
2023-02-19T23:24:06.125Z,19.13
2023-02-19T23:26:33.216Z,22.30
2023-02-19T23:29:00.381Z,26.83
2023-02-19T23:31:27.701Z,26.53
2023-02-19T23:33:55.702Z,22.60
2023-02-19T23:36:23.820Z,23.73
2023-02-19T23:38:51.131Z,23.85
2023-02-19T23:41:18.756Z,21.47
2023-02-19T23:43:45.969Z,22.10
2023-02-19T23:46:17.654Z,25.67
2023-02-19T23:48:45.993Z,21.23
2023-02-19T23:51:13.018Z,21.40
2023-02-19T23:53:40.037Z,21.35
2023-02-19T23:56:07.246Z,21.38
2023-02-19T23:58:34.285Z,23.95
